Time;durP1;ratioP1;P1;durP2;ratioP2;P2;SDS_P1;SDS_P2;PMS_P1;PMS_P2;Temp;Humidity;BMP_temperature;BMP_pressure;BME280_temperature;BME280_humidity;BME280_pressure;Samples;Min_cycle;Max_cycle;Signal;HPM_P1;HPM_P2
2023/10/16 00:01:09;;;;;;;5.20;2.10;;;;;;;7.10;74.25;99932.96;131012;1253;107761;-74
2023/10/16 00:04:20;;;;;;;4.60;1.80;;;;;;;7.04;74.61;99935.20;131001;1250;108649;-74
2023/10/16 00:07:27;;;;;;;4.10;1.80;;;;;;;7.07;75.06;99930.67;131137;1253;108575;-74
2023/10/16 00:10:33;;;;;;;5.40;2.00;;;;;;;7.13;74.76;99926.10;131058;1253;107653;-74
2023/10/16 00:13:39;;;;;;;5.70;1.90;;;;;;;7.22;74.83;99927.77;131068;1251;107124;-75
2023/10/16 00:16:45;;;;;;;5.20;2.10;;;;;;;7.23;74.75;99931.70;131110;1253;107839;-74
2023/10/16 00:19:54;;;;;;;5.10;2.50;;;;;;;7.20;74.81;99927.45;131054;1256;105515;-74
2023/10/16 00:22:59;;;;;;;7.70;2.60;;;;;;;7.17;74.85;99931.54;131075;1253;106784;-74
2023/10/16 00:26:06;;;;;;;4.10;2.10;;;;;;;7.15;74.94;99928.80;131077;1255;106550;-74
2023/10/16 00:29:18;;;;;;;3.50;1.80;;;;;;;7.12;74.77;99931.57;131096;1254;106643;-75
2023/10/16 00:32:25;;;;;;;5.20;1.90;;;;;;;7.12;74.95;99933.46;131129;1256;105788;-75
2023/10/16 00:35:32;;;;;;;3.50;1.60;;;;;;;7.14;74.98;99927.60;130987;1256;107883;-75
2023/10/16 00:38:38;;;;;;;4.50;1.80;;;;;;;7.16;75.12;99930.83;131038;1253;107724;-74
2023/10/16 00:41:44;;;;;;;5.90;2.00;;;;;;;7.19;75.31;99930.00;131052;1253;108776;-74
2023/10/16 00:44:54;;;;;;;5.40;2.10;;;;;;;7.20;75.10;99929.17;131121;1253;108521;-74
2023/10/16 00:48:01;;;;;;;4.90;2.40;;;;;;;7.25;75.18;99931.79;130991;1253;107048;-74
2023/10/16 00:51:09;;;;;;;4.10;2.00;;;;;;;7.27;75.16;99932.92;131032;1253;107023;-75
2023/10/16 00:54:26;;;;;;;5.10;2.10;;;;;;;7.29;75.33;99933.34;131027;1255;108556;-75
2023/10/16 00:57:32;;;;;;;5.90;1.80;;;;;;;7.29;75.04;99937.07;131246;1253;106785;-74
2023/10/16 01:00:38;;;;;;;5.30;1.70;;;;;;;7.28;75.27;99940.11;131109;1258;108430;-74
2023/10/16 01:03:48;;;;;;;2.80;1.40;;;;;;;7.26;75.18;99938.73;130990;1256;107702;-75
2023/10/16 01:06:55;;;;;;;5.30;1.80;;;;;;;7.27;75.32;99938.98;131025;1253;108895;-75
2023/10/16 01:10:01;;;;;;;5.00;1.80;;;;;;;7.28;75.27;99941.58;131101;1251;107601;-74
2023/10/16 01:13:11;;;;;;;4.60;1.70;;;;;;;7.30;75.39;99943.18;130961;1253;107131;-74
2023/10/16 01:16:17;;;;;;;4.60;2.00;;;;;;;7.39;75.25;99942.85;131044;1253;105340;-75
2023/10/16 01:19:23;;;;;;;4.40;1.70;;;;;;;7.43;75.23;99942.63;130990;1253;108321;-74
2023/10/16 01:22:34;;;;;;;4.90;1.80;;;;;;;7.43;75.29;99943.76;131021;1256;107714;-74
2023/10/16 01:25:40;;;;;;;3.60;1.60;;;;;;;7.41;75.28;99947.61;131144;1256;107668;-74
2023/10/16 01:28:46;;;;;;;4.70;2.00;;;;;;;7.37;75.30;99944.79;131090;1251;106460;-75
2023/10/16 01:31:52;;;;;;;4.10;1.50;;;;;;;7.37;75.38;99946.73;131043;1254;107555;-75
2023/10/16 01:34:59;;;;;;;5.40;1.70;;;;;;;7.41;75.42;99949.55;131137;1250;107018;-74
2023/10/16 01:38:14;;;;;;;6.70;2.10;;;;;;;7.44;75.43;99958.17;131223;1251;106473;-74
2023/10/16 01:41:21;;;;;;;4.50;1.60;;;;;;;7.41;75.48;99955.42;131086;1254;106861;-75
2023/10/16 01:44:28;;;;;;;6.60;1.90;;;;;;;7.44;75.32;99958.16;131148;1254;108520;-74
2023/10/16 01:47:34;;;;;;;3.90;1.60;;;;;;;7.49;75.51;99967.45;131013;1253;107720;-74
2023/10/16 01:50:41;;;;;;;4.60;1.60;;;;;;;7.45;75.42;99964.98;131035;1253;106985;-75
2023/10/16 01:53:50;;;;;;;6.60;2.00;;;;;;;7.40;75.63;99969.29;130952;1253;106775;-74
2023/10/16 01:56:55;;;;;;;4.40;1.80;;;;;;;7.39;75.89;99971.91;131065;1263;108576;-74
2023/10/16 02:00:01;;;;;;;5.90;2.10;;;;;;;7.33;75.98;99974.87;130998;1257;109472;-74
2023/10/16 02:03:08;;;;;;;6.60;2.10;;;;;;;7.30;76.14;99969.84;131068;1251;107676;-74
2023/10/16 02:06:15;;;;;;;5.60;1.70;;;;;;;7.36;75.93;99976.25;131069;1254;107497;-74
2023/10/16 02:09:23;;;;;;;3.30;1.50;;;;;;;7.43;75.79;99978.73;131057;1250;106915;-74
2023/10/16 02:12:29;;;;;;;3.90;1.70;;;;;;;7.45;75.90;99982.63;131170;1256;107393;-75
2023/10/16 02:15:36;;;;;;;3.80;1.70;;;;;;;7.42;75.99;99979.90;131072;1253;106275;-75
2023/10/16 02:18:45;;;;;;;4.70;1.80;;;;;;;7.41;76.03;99986.91;131079;1250;108202;-75
2023/10/16 02:21:53;;;;;;;5.00;1.80;;;;;;;7.37;76.29;99989.54;131131;1264;107633;-75
2023/10/16 02:24:59;;;;;;;4.60;1.50;;;;;;;7.32;75.98;99990.58;131097;1250;106516;-75
2023/10/16 02:28:07;;;;;;;2.80;1.30;;;;;;;7.32;76.23;99990.41;131373;1253;106794;-75
2023/10/16 02:31:15;;;;;;;4.90;1.60;;;;;;;7.35;76.43;99993.84;131016;1256;108691;-75
2023/10/16 02:34:23;;;;;;;6.00;1.70;;;;;;;7.38;76.35;99999.94;131082;1253;106556;-77
2023/10/16 02:37:29;;;;;;;6.20;1.70;;;;;;;7.37;76.41;100002.85;131300;1253;106961;-76
2023/10/16 02:40:35;;;;;;;4.50;1.80;;;;;;;7.31;76.42;100004.96;131154;1257;107658;-77
2023/10/16 02:43:41;;;;;;;3.50;1.80;;;;;;;7.31;76.20;100006.94;131059;1253;107061;-76
2023/10/16 02:46:47;;;;;;;5.10;1.80;;;;;;;7.24;77.01;100010.18;131148;1249;108832;-76
2023/10/16 02:49:53;;;;;;;6.20;1.60;;;;;;;7.16;76.94;100011.33;131018;1251;108714;-76
2023/10/16 02:52:58;;;;;;;6.60;1.70;;;;;;;7.19;76.67;100017.04;131024;1253;107697;-76
2023/10/16 02:56:08;;;;;;;2.90;1.80;;;;;;;7.26;76.62;100023.15;131100;1251;106531;-76
2023/10/16 02:59:13;;;;;;;3.20;1.80;;;;;;;7.28;76.74;100021.71;131059;1253;108614;-76
2023/10/16 03:02:22;;;;;;;4.10;1.80;;;;;;;7.33;76.83;100020.16;131139;1251;106615;-77
2023/10/16 03:05:28;;;;;;;4.80;1.90;;;;;;;7.37;76.82;100028.35;131022;1256;107777;-76
2023/10/16 03:08:36;;;;;;;3.60;1.90;;;;;;;7.32;76.95;100026.50;131100;1253;108379;-76
2023/10/16 03:11:41;;;;;;;3.80;1.70;;;;;;;7.26;77.26;100033.14;131009;1254;106527;-76
2023/10/16 03:14:51;;;;;;;3.20;1.80;;;;;;;7.22;77.51;100035.67;131078;1263;106489;-76
2023/10/16 03:17:57;;;;;;;4.70;1.60;;;;;;;7.19;77.43;100038.98;130985;1253;106576;-76
2023/10/16 03:21:26;;;;;;;5.00;1.80;;;;;;;7.22;77.46;100036.41;131047;1251;106420;-76
2023/10/16 03:24:34;;;;;;;6.90;2.30;;;;;;;7.24;77.40;100041.58;130953;1253;107629;-76
2023/10/16 03:27:42;;;;;;;4.20;1.80;;;;;;;7.27;77.20;100041.77;131059;1250;106761;-76
2023/10/16 03:30:47;;;;;;;4.30;1.70;;;;;;;7.28;77.12;100042.79;130967;1253;106133;-76
2023/10/16 03:33:55;;;;;;;4.50;1.80;;;;;;;7.26;77.74;100043.84;131048;1256;108680;-76
2023/10/16 03:37:06;;;;;;;3.30;1.30;;;;;;;7.19;77.73;100046.92;131073;1254;108387;-76
2023/10/16 03:40:13;;;;;;;5.00;2.00;;;;;;;7.20;77.87;100043.86;131117;1256;107587;-76
2023/10/16 03:43:22;;;;;;;4.00;1.90;;;;;;;7.24;77.86;100043.81;131030;1264;106669;-76
2023/10/16 03:46:27;;;;;;;4.40;1.70;;;;;;;7.24;77.75;100043.28;130993;1251;108062;-76
2023/10/16 03:49:33;;;;;;;6.20;2.30;;;;;;;7.31;77.47;100042.54;130992;1253;106946;-76
2023/10/16 03:52:39;;;;;;;5.40;2.20;;;;;;;7.33;77.43;100047.96;131063;1254;106659;-76
2023/10/16 03:55:47;;;;;;;4.30;1.90;;;;;;;7.31;77.47;100049.74;131078;1253;106371;-76
2023/10/16 03:58:53;;;;;;;5.10;1.80;;;;;;;7.33;77.38;100052.73;131040;1256;106881;-76
2023/10/16 04:02:00;;;;;;;3.80;1.40;;;;;;;7.35;77.48;100054.66;131082;1264;107654;-76
2023/10/16 04:05:29;;;;;;;5.20;2.00;;;;;;;7.34;77.54;100055.19;131009;1253;108653;-76
2023/10/16 04:08:35;;;;;;;3.80;1.90;;;;;;;7.38;77.88;100057.98;131036;1254;106556;-76
2023/10/16 04:11:48;;;;;;;5.40;1.90;;;;;;;7.39;77.44;100058.76;131015;1263;107585;-76
2023/10/16 04:14:56;;;;;;;6.60;1.80;;;;;;;7.40;77.52;100058.17;131025;1253;108297;-76
2023/10/16 04:18:05;;;;;;;3.70;2.10;;;;;;;7.42;77.60;100055.14;131005;1254;107763;-77
2023/10/16 04:24:47;;;;;;;5.50;2.50;;;;;;;7.45;77.41;100056.08;131055;1253;108461;-76
2023/10/16 04:28:09;;;;;;;4.70;1.80;;;;;;;7.42;77.49;100058.33;131072;1257;108491;-76
2023/10/16 04:31:43;;;;;;;4.30;1.70;;;;;;;7.33;77.49;100052.42;130964;1256;107717;-76
2023/10/16 04:34:53;;;;;;;5.70;1.80;;;;;;;7.28;77.98;100057.22;131138;1254;107977;-76
2023/10/16 04:38:27;;;;;;;3.90;2.10;;;;;;;7.31;77.96;100055.76;131047;1254;108356;-76
2023/10/16 04:45:00;;;;;;;3.00;1.60;;;;;;;7.35;77.79;100060.03;130914;1263;107429;-75
2023/10/16 04:51:38;;;;;;;4.70;1.80;;;;;;;7.29;77.84;100058.77;131400;1250;107221;-76
2023/10/16 04:54:59;;;;;;;2.80;1.60;;;;;;;7.27;77.96;100062.70;131277;1255;108656;-76
2023/10/16 04:58:27;;;;;;;2.90;1.30;;;;;;;7.27;77.86;100066.22;131040;1253;105552;-76
2023/10/16 05:05:32;;;;;;;5.60;1.70;;;;;;;7.37;77.74;100075.77;131216;1254;108399;-76
2023/10/16 05:08:35;;;;;;;8.90;4.90;;;;;;;7.44;77.87;100081.34;131148;1253;108806;-76
2023/10/16 05:22:03;;;;;;;313.20;99.50;;;;;;;7.44;77.74;100093.48;131057;1255;108821;-77
2023/10/16 06:16:20;;;;;;;20.00;9.40;;;;;;;7.75;77.30;100142.29;131061;1255;107697;-76
2023/10/16 06:19:26;;;;;;;4.60;1.80;;;;;;;7.78;77.16;100141.85;130996;1261;106523;-76
2023/10/16 06:22:31;;;;;;;6.00;2.10;;;;;;;7.83;77.09;100147.56;131094;1260;107611;-75
2023/10/16 06:25:38;;;;;;;5.50;1.70;;;;;;;7.84;76.96;100141.83;131056;1254;108755;-76
2023/10/16 06:28:51;;;;;;;12.40;6.90;;;;;;;7.92;77.15;100150.52;131067;1254;107150;-76
2023/10/16 06:31:58;;;;;;;7.80;4.10;;;;;;;8.05;77.02;100146.30;131044;1254;107668;-75
2023/10/16 06:35:07;;;;;;;61.70;25.10;;;;;;;8.16;76.82;100147.47;131093;1254;108199;-74
2023/10/16 06:38:15;;;;;;;48.10;19.50;;;;;;;8.21;76.64;100143.95;130970;1263;106941;-74
2023/10/16 06:41:22;;;;;;;21.50;8.20;;;;;;;8.29;76.47;100149.14;131099;1263;108231;-75
2023/10/16 06:44:29;;;;;;;50.70;20.50;;;;;;;8.28;75.95;100150.80;131099;1262;106664;-74
2023/10/16 06:47:36;;;;;;;50.90;20.50;;;;;;;8.34;76.00;100150.09;131087;1257;108005;-75
2023/10/16 06:50:52;;;;;;;12.30;3.90;;;;;;;8.30;75.79;100153.41;131122;1253;108240;-75
2023/10/16 06:54:01;;;;;;;67.70;27.70;;;;;;;8.26;76.08;100152.02;130863;1257;287352;-75
2023/10/16 06:57:10;;;;;;;6.50;3.10;;;;;;;8.32;75.88;100157.03;131067;1253;106875;-75
2023/10/16 07:00:22;;;;;;;6.80;3.00;;;;;;;8.30;75.44;100158.05;131076;1251;108251;-75
2023/10/16 07:03:28;;;;;;;15.60;6.30;;;;;;;8.34;75.65;100161.92;131079;1253;107653;-75
2023/10/16 07:06:35;;;;;;;6.20;3.30;;;;;;;8.43;75.59;100164.65;131017;1251;108476;-75
2023/10/16 07:09:47;;;;;;;4.60;1.90;;;;;;;8.48;75.72;100171.85;131092;1257;106663;-75
2023/10/16 07:12:58;;;;;;;4.40;1.70;;;;;;;8.60;75.43;100178.02;131011;1263;107232;-75
2023/10/16 07:16:07;;;;;;;4.30;1.70;;;;;;;8.63;75.01;100178.02;131030;1258;107069;-75
2023/10/16 07:19:16;;;;;;;5.00;1.80;;;;;;;8.59;74.58;100182.34;131052;1254;107946;-75
2023/10/16 07:22:26;;;;;;;4.30;1.60;;;;;;;8.51;74.23;100183.63;131026;1254;107781;-75
2023/10/16 07:25:47;;;;;;;3.90;2.00;;;;;;;8.43;74.43;100186.66;131132;1263;108705;-75
2023/10/16 07:28:53;;;;;;;5.60;1.80;;;;;;;8.43;74.50;100188.13;131052;1254;107153;-75
2023/10/16 07:32:01;;;;;;;5.90;1.60;;;;;;;8.45;74.50;100187.56;131034;1251;107691;-75
2023/10/16 07:35:08;;;;;;;3.30;2.00;;;;;;;8.57;74.16;100192.81;131052;1258;107802;-75
2023/10/16 07:38:19;;;;;;;6.70;2.20;;;;;;;8.57;74.11;100195.79;131007;1254;107644;-75
2023/10/16 07:41:24;;;;;;;4.10;2.20;;;;;;;8.60;74.64;100195.16;131076;1261;107254;-75
2023/10/16 07:44:35;;;;;;;5.60;2.10;;;;;;;8.72;74.51;100202.61;131051;1263;107672;-75
2023/10/16 07:47:41;;;;;;;4.00;1.90;;;;;;;8.69;74.29;100199.52;130991;1255;108398;-75
2023/10/16 07:50:46;;;;;;;4.40;1.90;;;;;;;8.72;74.22;100202.65;130952;1253;106775;-75
2023/10/16 07:53:53;;;;;;;5.00;2.10;;;;;;;8.76;74.63;100205.27;131009;1263;106638;-74
2023/10/16 07:57:02;;;;;;;4.30;2.00;;;;;;;8.79;74.27;100203.92;131065;1263;106858;-74
2023/10/16 08:00:14;;;;;;;3.40;2.10;;;;;;;8.72;73.99;100203.55;131060;1254;107531;-74
2023/10/16 08:03:19;;;;;;;4.10;1.80;;;;;;;8.70;74.49;100204.02;131052;1254;108580;-74
2023/10/16 08:06:25;;;;;;;5.10;2.00;;;;;;;8.74;74.40;100202.95;131046;1260;108403;-75
2023/10/16 08:12:50;;;;;;;3.40;1.90;;;;;;;8.78;73.98;100205.58;131037;1264;106673;-74
2023/10/16 08:15:56;;;;;;;3.70;1.80;;;;;;;8.83;73.69;100205.68;131075;1254;108536;-75
2023/10/16 08:19:04;;;;;;;4.40;2.00;;;;;;;8.87;73.46;100211.48;131064;1251;107685;-74
2023/10/16 08:22:13;;;;;;;4.50;1.90;;;;;;;8.94;73.43;100212.13;131039;1254;106529;-74
2023/10/16 08:25:31;;;;;;;4.30;1.90;;;;;;;9.08;72.94;100212.54;131115;1254;107217;-75
2023/10/16 08:28:42;;;;;;;4.40;2.20;;;;;;;9.19;72.30;100213.80;131102;1263;108631;-74
2023/10/16 08:32:37;;;;;;;3.00;2.10;;;;;;;9.25;72.18;100215.77;131008;1254;108702;-74
2023/10/16 08:35:19;;;;;;;4.20;2.00;;;;;;;9.29;71.79;100220.89;131094;1253;107668;-76
2023/10/16 08:38:26;;;;;;;2.50;1.60;;;;;;;9.35;72.36;100223.49;131091;1254;106348;-74
2023/10/16 08:41:42;;;;;;;5.90;1.80;;;;;;;9.48;71.63;100221.79;131006;1251;107437;-75
2023/10/16 08:44:51;;;;;;;3.30;1.80;;;;;;;9.52;70.47;100224.45;131040;1254;107233;-74
2023/10/16 08:47:58;;;;;;;3.90;1.70;;;;;;;9.40;69.72;100235.41;131082;1253;108735;-74
2023/10/16 08:51:08;;;;;;;4.90;1.50;;;;;;;9.30;69.48;100233.24;131094;1251;107392;-75
2023/10/16 08:57:38;;;;;;;3.60;1.60;;;;;;;9.32;70.96;100230.34;131031;1255;107694;-75
2023/10/16 09:00:44;;;;;;;5.90;1.90;;;;;;;9.37;70.21;100232.38;130957;1253;107687;-77
2023/10/16 09:03:54;;;;;;;5.20;2.20;;;;;;;9.33;70.39;100233.29;131089;1254;108426;-76
2023/10/16 09:07:00;;;;;;;3.30;2.20;;;;;;;9.30;71.11;100235.14;130940;1251;106881;-77
2023/10/16 09:10:09;;;;;;;3.80;1.90;;;;;;;9.51;71.50;100231.59;131036;1257;107069;-76
2023/10/16 09:13:17;;;;;;;5.20;2.10;;;;;;;9.68;70.77;100231.37;131090;1263;106437;-77
2023/10/16 09:16:27;;;;;;;5.30;2.10;;;;;;;9.79;70.65;100237.38;130982;1263;108556;-74
2023/10/16 09:19:34;;;;;;;5.20;1.90;;;;;;;9.89;69.97;100230.64;131041;1251;107388;-74
2023/10/16 09:22:45;;;;;;;4.70;2.20;;;;;;;9.95;68.80;100233.41;131097;1254;107574;-74
2023/10/16 09:25:55;;;;;;;5.10;2.20;;;;;;;9.91;68.84;100239.63;131043;1264;108701;-74
2023/10/16 09:29:11;;;;;;;4.50;2.10;;;;;;;9.86;68.24;100248.81;131096;1253;107564;-74
2023/10/16 09:32:20;;;;;;;3.40;1.90;;;;;;;9.82;68.73;100242.30;131072;1254;107548;-75
2023/10/16 09:35:32;;;;;;;5.20;2.10;;;;;;;9.80;68.89;100252.58;130943;1254;106841;-75
2023/10/16 09:38:42;;;;;;;3.90;2.00;;;;;;;9.67;68.84;100255.23;131122;1262;107624;-75
2023/10/16 09:41:49;;;;;;;5.30;2.30;;;;;;;9.54;66.63;100267.18;131100;1253;108751;-75
2023/10/16 09:45:06;;;;;;;4.40;2.00;;;;;;;9.30;67.40;100264.30;131085;1251;106431;-75
2023/10/16 09:48:19;;;;;;;4.50;1.90;;;;;;;9.20;68.92;100265.23;131024;1251;107712;-76
2023/10/16 09:51:25;;;;;;;6.10;2.20;;;;;;;9.26;69.03;100272.33;131046;1254;107914;-75
2023/10/16 09:54:32;;;;;;;3.50;1.80;;;;;;;9.32;69.16;100274.35;131034;1254;106728;-75
2023/10/16 09:57:49;;;;;;;4.70;2.00;;;;;;;9.43;68.78;100269.27;131129;1249;106492;-75
2023/10/16 10:01:06;;;;;;;4.30;2.20;;;;;;;9.51;68.36;100270.15;130974;1253;106462;-75
2023/10/16 10:04:17;;;;;;;4.50;1.60;;;;;;;9.46;68.49;100266.22;131020;1254;106517;-75
2023/10/16 10:07:34;;;;;;;4.20;1.90;;;;;;;9.48;68.40;100259.75;131111;1254;106496;-74
2023/10/16 10:14:26;;;;;;;3.50;1.80;;;;;;;9.52;68.00;100255.12;131006;1254;107742;-75
2023/10/16 10:17:35;;;;;;;4.70;1.90;;;;;;;9.46;67.28;100260.13;131059;1254;107753;-75
2023/10/16 10:20:44;;;;;;;4.90;2.00;;;;;;;9.43;67.62;100264.95;131015;1263;106696;-75
2023/10/16 10:23:50;;;;;;;5.80;1.90;;;;;;;9.51;67.72;100258.43;131037;1251;107709;-75
2023/10/16 10:26:59;;;;;;;6.10;2.10;;;;;;;9.63;68.08;100262.95;131127;1254;106775;-75
2023/10/16 10:30:11;;;;;;;4.40;1.90;;;;;;;9.74;67.62;100263.98;131120;1254;105879;-75
2023/10/16 10:33:42;;;;;;;5.80;2.40;;;;;;;9.77;67.20;100261.59;131115;1253;106685;-75
2023/10/16 10:36:49;;;;;;;7.00;2.20;;;;;;;9.78;67.15;100263.93;131069;1254;107647;-75
2023/10/16 10:40:15;;;;;;;3.90;1.80;;;;;;;9.80;67.64;100262.14;131050;1253;107963;-75
2023/10/16 10:43:44;;;;;;;5.00;2.30;;;;;;;9.83;67.58;100260.51;131065;1254;106650;-74
2023/10/16 10:46:53;;;;;;;5.10;2.20;;;;;;;9.94;66.82;100263.70;131071;1253;106685;-75
2023/10/16 10:50:11;;;;;;;5.50;2.30;;;;;;;10.03;66.83;100258.49;131049;1250;107711;-75
2023/10/16 10:53:20;;;;;;;5.90;2.20;;;;;;;10.10;66.48;100256.23;131078;1254;106476;-75
2023/10/16 10:56:38;;;;;;;4.60;2.10;;;;;;;10.18;66.15;100258.45;131037;1257;106643;-75
2023/10/16 10:59:48;;;;;;;4.40;2.00;;;;;;;10.23;66.91;100256.58;131059;1253;105919;-76
2023/10/16 11:03:05;;;;;;;3.30;2.10;;;;;;;10.23;65.54;100258.15;131000;1254;108662;-75
2023/10/16 11:06:18;;;;;;;3.70;1.90;;;;;;;10.17;65.53;100262.19;131043;1251;108096;-78
2023/10/16 11:09:32;;;;;;;5.10;2.00;;;;;;;10.13;65.86;100260.64;131165;1254;106448;-75
2023/10/16 11:12:38;;;;;;;3.20;1.90;;;;;;;10.13;66.04;100260.95;131090;1251;107692;-75
2023/10/16 11:15:52;;;;;;;5.80;2.20;;;;;;;10.12;66.50;100260.93;131099;1254;106798;-76
2023/10/16 11:19:05;;;;;;;5.40;2.20;;;;;;;10.13;66.35;100258.28;131147;1253;107584;-75
2023/10/16 11:22:10;;;;;;;3.70;2.20;;;;;;;10.11;65.72;100260.42;131094;1254;107637;-75
2023/10/16 11:25:16;;;;;;;4.80;2.20;;;;;;;10.00;65.55;100262.06;131041;1250;106904;-75
2023/10/16 11:28:28;;;;;;;8.30;2.20;;;;;;;10.04;66.26;100265.55;131094;1250;106555;-75
2023/10/16 11:31:40;;;;;;;4.60;1.90;;;;;;;10.04;65.83;100263.80;131017;1254;107715;-74
2023/10/16 11:34:50;;;;;;;3.20;1.70;;;;;;;9.95;66.62;100261.34;131026;1254;107679;-75
2023/10/16 11:37:59;;;;;;;4.80;1.90;;;;;;;9.92;66.08;100266.90;131093;1263;106765;-75
2023/10/16 11:41:14;;;;;;;4.80;2.00;;;;;;;9.79;65.85;100270.41;131069;1253;107555;-74
2023/10/16 11:44:25;;;;;;;4.70;2.10;;;;;;;9.58;66.42;100282.73;131114;1254;108770;-75
2023/10/16 11:47:39;;;;;;;4.60;2.00;;;;;;;9.46;67.30;100277.14;131113;1254;107918;-75
2023/10/16 11:50:45;;;;;;;3.00;1.80;;;;;;;9.52;67.30;100276.73;131174;1251;108184;-75
2023/10/16 11:53:50;;;;;;;6.30;2.80;;;;;;;9.61;67.57;100269.29;131094;1253;108507;-75
2023/10/16 11:56:59;;;;;;;6.40;2.00;;;;;;;9.63;67.02;100271.67;131116;1263;106592;-75
2023/10/16 12:00:15;;;;;;;3.60;1.90;;;;;;;9.57;66.90;100267.40;131050;1254;107564;-75
2023/10/16 12:03:23;;;;;;;6.40;2.10;;;;;;;9.61;66.68;100264.89;131099;1254;106966;-75
2023/10/16 12:06:29;;;;;;;6.00;2.30;;;;;;;9.73;66.46;100271.17;131036;1254;107685;-75
2023/10/16 12:09:38;;;;;;;3.60;1.90;;;;;;;9.75;66.15;100273.92;131037;1253;106900;-75
2023/10/16 12:12:44;;;;;;;5.30;1.90;;;;;;;9.66;64.73;100275.13;131148;1253;106605;-76
2023/10/16 12:15:50;;;;;;;4.30;1.90;;;;;;;9.58;65.72;100274.94;131031;1254;106892;-76
2023/10/16 12:18:56;;;;;;;9.00;5.30;;;;;;;9.57;64.94;100277.39;131118;1253;107594;-75
2023/10/16 12:22:02;;;;;;;4.80;2.30;;;;;;;9.57;65.56;100272.37;131069;1254;107620;-75
2023/10/16 12:25:09;;;;;;;3.50;2.10;;;;;;;9.75;64.95;100270.09;131027;1263;107616;-75
2023/10/16 12:28:15;;;;;;;4.90;1.70;;;;;;;9.93;65.08;100270.19;131198;1254;106631;-75
2023/10/16 12:31:21;;;;;;;7.00;2.00;;;;;;;10.05;65.06;100267.39;131085;1254;108432;-74
2023/10/16 12:34:31;;;;;;;4.00;1.80;;;;;;;10.14;63.88;100265.96;130933;1253;106505;-76
2023/10/16 12:37:37;;;;;;;6.20;1.80;;;;;;;10.00;63.51;100273.05;131109;1253;107827;-76
2023/10/16 12:40:42;;;;;;;3.70;1.80;;;;;;;9.73;64.28;100269.44;131033;1255;106460;-76
2023/10/16 12:43:50;;;;;;;4.10;2.10;;;;;;;9.65;64.79;100265.77;131023;1254;108382;-76
2023/10/16 12:46:56;;;;;;;7.70;2.40;;;;;;;9.57;64.89;100265.23;131089;1253;106668;-76
2023/10/16 12:50:04;;;;;;;4.90;2.00;;;;;;;9.37;64.30;100276.41;131045;1253;107183;-77
2023/10/16 12:53:10;;;;;;;4.70;2.30;;;;;;;9.27;64.92;100276.66;131091;1251;106375;-76
2023/10/16 12:56:17;;;;;;;5.00;1.90;;;;;;;9.33;64.82;100275.37;131015;1254;106330;-76
2023/10/16 12:59:25;;;;;;;5.80;2.20;;;;;;;9.38;64.78;100272.36;131043;1263;106951;-76
2023/10/16 13:02:31;;;;;;;3.60;2.10;;;;;;;9.50;64.97;100273.06;131046;1254;106778;-75
2023/10/16 13:05:36;;;;;;;5.00;2.10;;;;;;;9.62;65.00;100277.55;131055;1253;107958;-76
2023/10/16 13:08:42;;;;;;;5.50;2.00;;;;;;;9.78;64.87;100271.26;130992;1253;106272;-75
2023/10/16 13:11:48;;;;;;;4.50;1.90;;;;;;;9.85;64.42;100272.95;131043;1254;107638;-75
2023/10/16 13:14:57;;;;;;;11.00;2.20;;;;;;;9.93;64.33;100269.87;131095;1254;108711;-75
2023/10/16 13:18:03;;;;;;;18.90;10.70;;;;;;;10.02;64.49;100268.02;131078;1253;105534;-76
2023/10/16 13:21:12;;;;;;;78.90;38.90;;;;;;;10.12;63.75;100265.44;131036;1256;106655;-76
2023/10/16 13:24:20;;;;;;;96.10;44.20;;;;;;;10.10;63.12;100265.70;131084;1250;108072;-77
2023/10/16 13:27:25;;;;;;;161.30;80.90;;;;;;;10.09;63.84;100268.77;131067;1254;107935;-76
2023/10/16 13:30:32;;;;;;;314.40;150.00;;;;;;;10.08;62.90;100273.14;130962;1255;108137;-76
2023/10/16 13:33:41;;;;;;;192.90;102.60;;;;;;;9.96;61.70;100276.95;131143;1251;107386;-75
2023/10/16 13:36:56;;;;;;;135.80;57.30;;;;;;;9.88;62.03;100277.47;131049;1251;108469;-76
2023/10/16 13:40:04;;;;;;;41.50;16.50;;;;;;;9.87;62.95;100275.60;131029;1256;107543;-76
2023/10/16 13:43:11;;;;;;;15.60;7.10;;;;;;;9.85;62.42;100276.31;131072;1251;108968;-75
2023/10/16 13:46:17;;;;;;;9.20;5.00;;;;;;;9.75;62.48;100276.52;131041;1263;107867;-75
2023/10/16 13:49:24;;;;;;;9.80;3.90;;;;;;;9.67;62.19;100276.45;131045;1254;106594;-75
2023/10/16 13:52:29;;;;;;;5.60;2.50;;;;;;;9.63;62.75;100276.09;131027;1253;107538;-76
2023/10/16 13:55:35;;;;;;;5.60;3.00;;;;;;;9.66;62.26;100274.98;130962;1254;108488;-75
2023/10/16 13:58:41;;;;;;;6.60;2.00;;;;;;;9.62;61.74;100276.67;131014;1250;107794;-75
2023/10/16 14:01:46;;;;;;;6.10;2.30;;;;;;;9.56;62.05;100275.67;131004;1257;108620;-75
2023/10/16 14:04:52;;;;;;;317.20;133.90;;;;;;;9.50;62.55;100282.06;131097;1254;106170;-75
2023/10/16 14:08:00;;;;;;;33.70;14.10;;;;;;;9.47;62.53;100282.05;131017;1251;108756;-75
2023/10/16 14:11:11;;;;;;;34.10;14.50;;;;;;;9.38;62.58;100286.25;131029;1253;108743;-75
2023/10/16 14:14:19;;;;;;;357.90;175.10;;;;;;;9.34;62.63;100287.30;131093;1251;108145;-75
2023/10/16 14:17:31;;;;;;;57.60;25.50;;;;;;;9.34;62.81;100288.36;131093;1250;106792;-75
2023/10/16 14:20:36;;;;;;;;;;;;;;;9.29;62.54;100290.48;131048;1253;107670;-75
2023/10/16 14:23:43;;;;;;;16.20;8.40;;;;;;;9.22;62.82;100291.98;131015;1251;109110;-75
2023/10/16 14:26:49;;;;;;;17.70;9.60;;;;;;;9.19;62.98;100295.83;131052;1255;107866;-75
2023/10/16 14:29:59;;;;;;;12.20;6.30;;;;;;;9.17;62.99;100294.80;131088;1250;106588;-75
2023/10/16 14:33:06;;;;;;;6.80;3.60;;;;;;;9.12;62.87;100296.85;131013;1254;106755;-75
2023/10/16 14:36:16;;;;;;;8.30;4.70;;;;;;;9.08;62.98;100297.11;131021;1253;107829;-76
2023/10/16 14:39:27;;;;;;;10.10;5.10;;;;;;;9.09;63.31;100295.89;131528;1251;107482;-75
2023/10/16 14:42:33;;;;;;;7.90;4.00;;;;;;;9.14;63.32;100298.66;133240;1249;107285;-75
2023/10/16 14:45:39;;;;;;;5.90;4.30;;;;;;;9.21;63.43;100298.70;131275;1254;108304;-75
2023/10/16 14:48:45;;;;;;;5.40;3.70;;;;;;;9.26;63.48;100295.70;131164;1253;108649;-75
2023/10/16 14:51:50;;;;;;;6.40;2.80;;;;;;;9.29;63.40;100298.70;131242;1253;107171;-74
2023/10/16 14:54:56;;;;;;;6.60;3.40;;;;;;;9.26;63.06;100305.98;131215;1251;106455;-75
2023/10/16 14:58:02;;;;;;;5.50;2.60;;;;;;;9.17;63.07;100303.11;131232;1249;106535;-75
2023/10/16 15:01:15;;;;;;;7.00;2.80;;;;;;;9.14;63.40;100301.08;131288;1249;108315;-75
2023/10/16 15:04:21;;;;;;;6.20;2.60;;;;;;;9.14;63.41;100301.44;131028;1254;107795;-75
2023/10/16 15:07:26;;;;;;;5.80;2.60;;;;;;;9.11;63.57;100301.42;131357;1253;106808;-77
2023/10/16 15:10:32;;;;;;;7.30;4.20;;;;;;;9.07;63.54;100303.33;131248;1254;106800;-76
2023/10/16 15:13:39;;;;;;;9.20;4.00;;;;;;;9.02;63.68;100302.55;131645;1250;106938;-76
2023/10/16 15:16:44;;;;;;;16.80;9.40;;;;;;;8.97;63.90;100307.85;131302;1253;108365;-75
2023/10/16 15:19:50;;;;;;;9.00;4.60;;;;;;;8.93;63.78;100311.02;131348;1251;107399;-74
2023/10/16 15:22:55;;;;;;;11.20;5.50;;;;;;;8.81;64.10;100312.11;131221;1250;107711;-74
2023/10/16 15:26:01;;;;;;;13.10;8.30;;;;;;;8.66;64.08;100316.84;131015;1253;107662;-75
2023/10/16 15:29:11;;;;;;;23.80;15.10;;;;;;;8.54;64.33;100320.02;131129;1253;108532;-74
2023/10/16 15:32:17;;;;;;;11.20;6.20;;;;;;;8.44;64.37;100325.17;131084;1249;107896;-75
2023/10/16 15:35:23;;;;;;;9.50;5.30;;;;;;;8.35;64.57;100328.86;131402;1250;107516;-75
2023/10/16 15:38:29;;;;;;;24.10;13.10;;;;;;;8.29;64.90;100336.63;131211;1254;107513;-75
2023/10/16 15:41:34;;;;;;;18.80;9.20;;;;;;;8.25;64.96;100338.70;131289;1250;107741;-76
2023/10/16 15:44:41;;;;;;;16.60;9.00;;;;;;;8.23;64.92;100342.57;131389;1250;106660;-80
2023/10/16 15:47:47;;;;;;;28.10;15.20;;;;;;;8.25;65.22;100345.79;131075;1253;108660;-76
2023/10/16 15:50:52;;;;;;;22.10;10.10;;;;;;;8.25;65.19;100348.48;131089;1250;106760;-76
2023/10/16 15:53:58;;;;;;;15.10;7.20;;;;;;;8.22;65.04;100351.61;131135;1253;108714;-76